Time;durP1;ratioP1;P1;durP2;ratioP2;P2;SDS_P1;SDS_P2;PMS_P1;PMS_P2;Temp;Humidity;BMP_temperature;BMP_pressure;BME280_temperature;BME280_humidity;BME280_pressure;Samples;Min_cycle;Max_cycle;Signal;HPM_P1;HPM_P2
2022/12/31 00:00:39;;;;;;;53.43;40.60;;;;;;;6.69;62.74;95931.72;5024230;28;20223;-67
2022/12/31 00:03:06;;;;;;;57.13;40.30;;;;;;;6.72;62.73;95937.56;5010188;28;20233;-67
2022/12/31 00:05:34;;;;;;;46.10;34.80;;;;;;;6.81;62.71;95938.69;5016188;28;20222;-67
2022/12/31 00:08:00;;;;;;;46.70;36.03;;;;;;;6.85;62.24;95927.94;5013776;28;20190;-67
2022/12/31 00:10:27;;;;;;;48.43;35.50;;;;;;;6.82;62.55;95924.72;5019770;28;20186;-67
2022/12/31 00:12:52;;;;;;;43.80;34.03;;;;;;;6.82;62.56;95922.09;5022121;28;20221;-67
2022/12/31 00:15:18;;;;;;;42.60;33.50;;;;;;;6.83;62.75;95915.91;5020012;28;20218;-68
2022/12/31 00:17:43;;;;;;;49.10;33.47;;;;;;;6.84;62.67;95922.78;5009941;28;20225;-67
2022/12/31 00:20:09;;;;;;;43.33;31.73;;;;;;;6.81;62.76;95921.22;5016442;28;20217;-67
2022/12/31 00:22:34;;;;;;;38.57;30.23;;;;;;;6.89;62.88;95928.53;5006920;28;20188;-67
2022/12/31 00:25:00;;;;;;;35.83;29.57;;;;;;;6.89;62.68;95927.72;5019861;28;20317;-67
2022/12/31 00:27:28;;;;;;;41.77;29.63;;;;;;;6.95;62.32;95922.06;5004813;28;20211;-67
2022/12/31 00:29:54;;;;;;;39.30;32.13;;;;;;;7.00;62.59;95936.50;5015983;28;20245;-67
2022/12/31 00:32:19;;;;;;;37.10;29.30;;;;;;;7.01;62.43;95930.31;5009492;28;20294;-67
2022/12/31 00:34:44;;;;;;;39.17;30.10;;;;;;;7.01;62.36;95926.88;5014703;28;20194;-67
2022/12/31 00:37:10;;;;;;;39.83;29.73;;;;;;;6.98;62.76;95943.59;5011999;28;20214;-67
2022/12/31 00:39:35;;;;;;;35.63;28.07;;;;;;;6.93;62.82;95948.31;5019818;28;20231;-67
2022/12/31 00:42:01;;;;;;;36.27;29.37;;;;;;;6.95;62.92;95953.44;5016140;28;20218;-66
2022/12/31 00:44:26;;;;;;;39.40;29.40;;;;;;;6.90;63.35;95951.16;5010373;28;20223;-66
2022/12/31 00:46:52;;;;;;;38.00;27.60;;;;;;;6.98;62.75;95958.47;4999435;28;20286;-67
2022/12/31 00:49:18;;;;;;;33.33;26.83;;;;;;;6.91;62.96;95947.59;5019855;28;20197;-66
2022/12/31 00:51:45;;;;;;;38.40;27.40;;;;;;;7.04;62.59;95961.47;5020637;28;20275;-66
2022/12/31 00:54:11;;;;;;;33.33;26.80;;;;;;;7.00;62.69;95957.41;5008449;28;20217;-66
2022/12/31 00:56:36;;;;;;;35.97;27.00;;;;;;;7.00;62.41;95960.03;5009182;28;20291;-66
2022/12/31 00:59:02;;;;;;;32.97;27.27;;;;;;;7.00;62.62;95957.41;4991895;28;20199;-66
2022/12/31 01:01:36;;;;;;;34.30;27.50;;;;;;;7.02;62.35;95958.13;4991960;28;20179;-66
2022/12/31 01:04:05;;;;;;;38.00;27.70;;;;;;;7.05;62.31;95967.53;5002319;28;20239;-66
2022/12/31 01:06:31;;;;;;;40.57;30.27;;;;;;;6.99;62.20;95971.41;5013533;28;20229;-66
2022/12/31 01:08:56;;;;;;;60.60;44.87;;;;;;;6.81;62.44;95972.69;5009030;28;20219;-66
2022/12/31 01:11:27;;;;;;;69.27;53.13;;;;;;;6.58;63.16;95976.88;5015089;28;20222;-66
2022/12/31 01:14:03;;;;;;;68.97;50.53;;;;;;;6.72;62.59;95986.41;5009774;28;20207;-66
2022/12/31 01:16:33;;;;;;;60.33;46.77;;;;;;;6.78;62.13;95988.59;5008541;28;20198;-66
2022/12/31 01:19:00;;;;;;;61.27;46.50;;;;;;;6.82;61.66;95985.66;5010823;28;20215;-66
2022/12/31 01:21:27;;;;;;;60.80;45.00;;;;;;;6.73;61.97;95985.44;5017528;28;20217;-66
2022/12/31 01:23:52;;;;;;;57.27;42.77;;;;;;;6.65;62.08;95987.75;5015746;28;20252;-66
2022/12/31 01:26:19;;;;;;;52.50;42.57;;;;;;;6.62;62.12;95987.00;5014637;28;20306;-67
2022/12/31 01:28:45;;;;;;;56.80;40.50;;;;;;;6.59;61.99;95982.00;5022427;28;20233;-66
2022/12/31 01:31:17;;;;;;;57.00;43.17;;;;;;;6.68;61.96;95990.13;5007894;28;20219;-66
2022/12/31 01:33:43;;;;;;;53.27;39.33;;;;;;;6.55;62.18;95977.94;5010288;28;20219;-66
2022/12/31 01:36:18;;;;;;;49.50;38.20;;;;;;;6.62;61.96;95983.56;5012279;28;20298;-66
2022/12/31 01:38:43;;;;;;;55.13;41.60;;;;;;;6.58;62.00;95993.38;5012884;28;20240;-66
2022/12/31 01:41:14;;;;;;;51.63;40.57;;;;;;;6.60;61.89;95981.06;5020768;28;20187;-65
2022/12/31 01:43:54;;;;;;;58.23;40.13;;;;;;;6.60;61.68;95986.28;5010802;28;20182;-66
2022/12/31 01:46:41;;;;;;;50.00;39.93;;;;;;;6.54;62.40;95996.31;5019262;28;20207;-66
2022/12/31 01:49:21;;;;;;;51.13;38.80;;;;;;;6.53;62.30;96000.69;5024493;28;20257;-66
2022/12/31 01:51:55;;;;;;;52.03;38.47;;;;;;;6.14;63.56;95991.94;5008729;28;20219;-66
2022/12/31 01:54:24;;;;;;;49.67;38.30;;;;;;;6.35;62.73;95992.31;4993730;28;20211;-66
2022/12/31 01:56:52;;;;;;;45.47;34.77;;;;;;;6.36;62.51;96006.19;5008428;28;20223;-66
2022/12/31 01:59:20;;;;;;;46.17;34.53;;;;;;;6.31;62.69;96005.69;5012801;28;20218;-66
2022/12/31 02:01:47;;;;;;;46.07;36.03;;;;;;;6.19;62.96;96002.94;5012001;28;20186;-66
2022/12/31 02:04:14;;;;;;;41.93;32.23;;;;;;;6.25;63.04;95993.84;5009417;28;20230;-66
2022/12/31 02:07:00;;;;;;;33.77;27.13;;;;;;;6.31;62.91;95995.25;5020625;28;20219;-66
2022/12/31 02:09:25;;;;;;;27.47;21.60;;;;;;;6.33;62.73;95995.97;5007921;28;20230;-66
2022/12/31 02:11:51;;;;;;;29.87;24.93;;;;;;;6.29;62.97;96004.94;5026580;28;20223;-66
2022/12/31 02:14:39;;;;;;;30.07;25.37;;;;;;;6.30;63.21;96009.22;5014012;28;20230;-66
2022/12/31 02:17:26;;;;;;;34.47;26.83;;;;;;;6.29;63.03;96010.19;5008769;28;20254;-66
2022/12/31 02:20:10;;;;;;;32.37;25.97;;;;;;;6.28;62.84;96008.47;5020496;28;20179;-66
2022/12/31 02:23:03;;;;;;;35.97;29.60;;;;;;;6.24;62.98;96010.47;5010907;28;20234;-66
2022/12/31 02:25:28;;;;;;;31.27;27.37;;;;;;;6.21;63.31;96012.47;5022921;28;20229;-66
2022/12/31 02:28:18;;;;;;;39.50;30.63;;;;;;;6.15;63.54;96006.69;5008478;28;20219;-66
2022/12/31 02:30:49;;;;;;;41.47;32.10;;;;;;;6.17;63.26;96003.97;5006761;28;20216;-66
2022/12/31 02:33:35;;;;;;;41.37;34.20;;;;;;;5.74;64.93;96014.53;4996193;28;20220;-66
2022/12/31 02:36:13;;;;;;;43.37;34.67;;;;;;;5.86;64.96;96013.78;4998432;28;20223;-66
2022/12/31 02:38:43;;;;;;;40.67;33.73;;;;;;;5.91;65.40;96018.72;5018421;28;20236;-66
2022/12/31 02:43:57;;;;;;;45.67;37.10;;;;;;;6.02;64.63;96021.47;5010912;28;20209;-66
2022/12/31 02:46:44;;;;;;;47.00;36.17;;;;;;;6.05;64.13;96023.91;5020952;28;20191;-66
2022/12/31 02:49:20;;;;;;;45.50;36.87;;;;;;;5.98;64.45;96025.22;5036784;28;20218;-66
2022/12/31 02:51:57;;;;;;;44.17;35.07;;;;;;;5.89;64.66;96020.56;5022992;28;20214;-66
2022/12/31 02:55:08;;;;;;;45.67;36.63;;;;;;;5.91;64.37;96023.94;5031695;28;20211;-66
2022/12/31 02:57:33;;;;;;;45.10;35.90;;;;;;;5.90;64.46;96022.22;5028310;28;20246;-66
2022/12/31 03:02:51;;;;;;;44.33;35.97;;;;;;;5.97;64.37;96027.00;5016118;28;20250;-66
2022/12/31 03:05:21;;;;;;;44.80;33.47;;;;;;;5.98;64.83;96025.22;5014193;28;20226;-66
2022/12/31 03:07:47;;;;;;;41.47;32.27;;;;;;;5.92;64.83;96021.19;5013429;28;20183;-66
2022/12/31 03:10:12;;;;;;;37.80;30.30;;;;;;;5.97;64.93;96011.34;5026128;28;20219;-66
2022/12/31 03:12:45;;;;;;;38.57;28.83;;;;;;;5.99;65.03;96015.59;5020475;28;20218;-66
2022/12/31 03:15:19;;;;;;;31.27;27.77;;;;;;;5.97;65.25;96015.72;5013071;28;20219;-66
2022/12/31 03:22:26;;;;;;;35.93;29.03;;;;;;;6.00;64.76;96007.69;5015752;28;20225;-66
2022/12/31 03:26:40;;;;;;;35.97;27.93;;;;;;;5.88;64.42;96005.81;4978861;28;20266;-66
2022/12/31 03:29:05;;;;;;;33.97;26.23;;;;;;;5.81;64.38;96012.41;4979580;28;20192;-66
2022/12/31 03:31:31;;;;;;;36.00;28.13;;;;;;;5.65;64.49;96009.91;4970706;28;20208;-66
2022/12/31 03:33:56;;;;;;;33.97;26.87;;;;;;;5.58;65.06;96016.44;4973405;28;20239;-66
2022/12/31 03:36:22;;;;;;;37.13;28.37;;;;;;;5.55;64.81;96011.44;4970532;28;20231;-66
2022/12/31 03:38:47;;;;;;;32.73;27.30;;;;;;;5.67;64.39;96008.88;4973808;28;20224;-66
2022/12/31 03:41:12;;;;;;;33.93;25.77;;;;;;;5.59;64.57;96010.31;4969698;28;20220;-66
2022/12/31 03:43:38;;;;;;;31.50;26.77;;;;;;;5.53;64.92;96015.00;4975877;28;20199;-66
2022/12/31 03:46:03;;;;;;;32.97;26.90;;;;;;;5.58;64.67;96019.88;4975480;28;20231;-66
2022/12/31 03:48:29;;;;;;;32.27;26.70;;;;;;;5.48;64.98;96008.34;4962897;28;20236;-66
2022/12/31 03:50:54;;;;;;;31.10;24.47;;;;;;;5.49;64.59;96012.66;4957983;28;20224;-65
2022/12/31 03:53:20;;;;;;;33.23;27.30;;;;;;;5.60;64.44;96017.19;4944764;28;20369;-66
2022/12/31 03:55:50;;;;;;;35.90;27.97;;;;;;;5.51;64.90;96021.22;4960406;28;20188;-66
2022/12/31 03:58:16;;;;;;;33.70;28.47;;;;;;;5.45;65.55;96022.47;5009289;28;20254;-66
2022/12/31 04:00:41;;;;;;;39.87;29.67;;;;;;;5.34;65.49;96024.03;5015708;28;20281;-66
2022/12/31 04:03:06;;;;;;;35.60;28.80;;;;;;;5.35;65.32;96021.34;5011473;28;20357;-66
2022/12/31 04:05:32;;;;;;;37.47;29.83;;;;;;;5.23;65.43;96014.28;5015716;28;20228;-66
2022/12/31 04:07:58;;;;;;;37.47;29.73;;;;;;;5.10;66.34;96022.00;5021872;28;20188;-66
2022/12/31 04:10:23;;;;;;;41.53;31.50;;;;;;;5.23;66.29;96024.69;5008853;28;20253;-66
2022/12/31 04:12:48;;;;;;;38.03;31.17;;;;;;;5.22;65.77;96034.31;5020378;28;20218;-66
2022/12/31 04:15:19;;;;;;;45.00;33.37;;;;;;;4.76;67.38;96023.22;5012138;28;20306;-66
2022/12/31 04:17:45;;;;;;;45.93;31.97;;;;;;;5.04;66.79;96038.03;5015544;28;20250;-66
2022/12/31 04:20:10;;;;;;;38.97;31.07;;;;;;;5.13;66.29;96026.19;5018636;28;21782;-66
2022/12/31 04:22:37;;;;;;;40.63;30.57;;;;;;;5.20;66.17;96030.94;5012782;28;20191;-66
2022/12/31 04:25:03;;;;;;;41.27;32.87;;;;;;;5.18;65.80;96027.59;5026940;28;20271;-66
2022/12/31 04:27:29;;;;;;;42.73;31.53;;;;;;;5.13;67.01;96031.41;5007355;28;20242;-67
2022/12/31 04:29:54;;;;;;;40.00;30.10;;;;;;;5.00;67.24;96034.78;5027849;28;20242;-66
2022/12/31 04:32:20;;;;;;;39.43;32.10;;;;;;;5.13;66.33;96034.84;5025342;28;20218;-66
2022/12/31 04:34:45;;;;;;;39.30;32.10;;;;;;;5.15;65.76;96038.19;5008681;28;20251;-66
2022/12/31 04:37:11;;;;;;;40.30;31.97;;;;;;;5.06;65.51;96046.59;5015560;28;20225;-66
2022/12/31 04:39:36;;;;;;;42.03;30.97;;;;;;;4.89;66.38;96044.16;5023414;28;20223;-66
2022/12/31 04:42:02;;;;;;;42.20;31.80;;;;;;;4.54;67.45;96060.09;5013922;28;20210;-66
2022/12/31 04:44:27;;;;;;;43.50;32.83;;;;;;;4.75;66.96;96056.22;5015942;28;20241;-66
2022/12/31 04:46:53;;;;;;;44.37;33.43;;;;;;;4.82;66.33;96059.34;5022196;28;20275;-66
2022/12/31 04:49:18;;;;;;;38.93;30.17;;;;;;;4.73;66.32;96054.66;5009447;28;20223;-66
2022/12/31 04:51:44;;;;;;;41.13;30.77;;;;;;;4.82;65.79;96057.56;5024465;28;20226;-66
2022/12/31 04:54:09;;;;;;;41.87;30.17;;;;;;;4.73;66.31;96068.53;5013114;28;20223;-66
2022/12/31 04:56:35;;;;;;;40.17;30.83;;;;;;;4.85;65.89;96065.19;5019596;28;20221;-66
2022/12/31 04:59:01;;;;;;;36.77;29.90;;;;;;;4.77;66.10;96063.97;5020698;28;20279;-66
2022/12/31 05:01:26;;;;;;;39.83;30.37;;;;;;;4.76;66.10;96057.94;5017618;28;20224;-66
2022/12/31 05:03:52;;;;;;;40.43;30.00;;;;;;;4.92;65.60;96076.09;5013466;28;20230;-66
2022/12/31 05:06:20;;;;;;;41.87;31.13;;;;;;;4.95;65.32;96075.09;5006289;28;20290;-66
2022/12/31 05:08:46;;;;;;;44.70;32.27;;;;;;;4.77;65.92;96077.00;5007352;28;20216;-67
2022/12/31 05:11:12;;;;;;;38.73;29.37;;;;;;;4.79;65.65;96081.19;5016639;28;20249;-67
2022/12/31 05:13:38;;;;;;;41.30;30.43;;;;;;;4.78;65.77;96079.50;5019486;28;20186;-66
2022/12/31 05:16:04;;;;;;;42.27;30.47;;;;;;;4.69;65.91;96094.84;5026141;28;20309;-66
2022/12/31 05:18:30;;;;;;;39.23;29.53;;;;;;;4.69;66.20;96097.47;5006341;28;20223;-66
2022/12/31 05:20:56;;;;;;;41.73;29.83;;;;;;;4.72;65.95;96098.09;5014640;28;20520;-66
2022/12/31 05:23:22;;;;;;;38.23;30.00;;;;;;;4.79;66.05;96106.41;5014519;28;20222;-66
2022/12/31 05:25:48;;;;;;;41.37;31.07;;;;;;;4.56;66.78;96107.75;5020801;28;20208;-66
2022/12/31 05:28:14;;;;;;;36.03;30.07;;;;;;;4.74;66.30;96111.91;5005954;28;20220;-66
2022/12/31 05:30:41;;;;;;;36.93;30.60;;;;;;;4.61;66.57;96108.31;5004272;28;20219;-67
2022/12/31 05:33:06;;;;;;;34.93;28.23;;;;;;;4.61;66.57;96109.16;5012402;28;20239;-66
2022/12/31 05:35:32;;;;;;;36.20;28.50;;;;;;;4.67;66.54;96110.56;5014142;28;20242;-66
2022/12/31 05:37:59;;;;;;;35.33;29.70;;;;;;;4.80;66.37;96119.34;5013779;28;20226;-67
2022/12/31 05:40:24;;;;;;;36.50;29.10;;;;;;;4.77;66.32;96114.31;5011934;28;20278;-66
2022/12/31 05:42:50;;;;;;;39.70;29.40;;;;;;;4.81;66.50;96109.75;5012583;28;20283;-67
2022/12/31 05:45:17;;;;;;;35.10;29.17;;;;;;;4.84;65.99;96110.44;5011272;28;20309;-66
2022/12/31 05:47:49;;;;;;;36.57;29.40;;;;;;;4.86;66.33;96107.72;5003207;28;20238;-67
2022/12/31 05:50:15;;;;;;;36.53;29.57;;;;;;;4.92;66.09;96114.34;5011673;28;20229;-67
2022/12/31 05:52:44;;;;;;;39.43;26.90;;;;;;;4.93;65.71;96118.63;5009903;28;20215;-67
2022/12/31 05:55:11;;;;;;;34.70;26.83;;;;;;;4.76;65.97;96115.25;5014206;28;20229;-67
2022/12/31 05:57:37;;;;;;;31.50;25.43;;;;;;;4.70;66.65;96114.75;5010777;28;20226;-67
2022/12/31 06:00:05;;;;;;;32.87;26.87;;;;;;;4.68;66.86;96119.22;5007364;28;20258;-66
2022/12/31 06:02:31;;;;;;;28.63;24.07;;;;;;;4.76;66.66;96125.69;5026414;28;20280;-67
2022/12/31 06:04:57;;;;;;;26.13;21.73;;;;;;;4.75;67.09;96125.75;5018899;28;20215;-66
2022/12/31 06:07:22;;;;;;;26.50;21.83;;;;;;;4.75;66.79;96116.16;5012061;28;20205;-66
2022/12/31 06:09:49;;;;;;;30.83;24.57;;;;;;;4.73;66.91;96117.19;5017157;28;20234;-66
2022/12/31 06:12:14;;;;;;;29.27;23.70;;;;;;;4.73;66.77;96125.00;5011632;28;20328;-66
2022/12/31 06:14:40;;;;;;;30.30;22.50;;;;;;;4.73;66.81;96122.38;5015099;28;20305;-67
2022/12/31 06:17:05;;;;;;;27.87;22.70;;;;;;;4.74;66.40;96124.09;5011413;28;20183;-67
2022/12/31 06:19:31;;;;;;;29.03;21.73;;;;;;;4.72;66.31;96131.97;5013414;28;20186;-66
2022/12/31 06:21:56;;;;;;;29.03;23.67;;;;;;;4.74;66.02;96124.91;5013689;28;20230;-67
2022/12/31 06:24:22;;;;;;;37.70;26.97;;;;;;;4.66;66.20;96129.75;5003338;28;20227;-66
2022/12/31 06:26:48;;;;;;;31.87;26.30;;;;;;;4.56;66.76;96142.44;5006243;28;20223;-67
2022/12/31 06:29:13;;;;;;;31.27;25.40;;;;;;;4.61;66.50;96129.16;5013627;28;20233;-66
2022/12/31 06:31:39;;;;;;;35.23;26.90;;;;;;;4.61;66.01;96144.78;5014670;28;20207;-66
2022/12/31 06:34:05;;;;;;;36.77;26.27;;;;;;;4.58;66.46;96132.78;5006130;28;20218;-66
2022/12/31 06:36:31;;;;;;;33.10;25.37;;;;;;;4.68;65.72;96148.72;5007386;28;20252;-66
2022/12/31 06:38:56;;;;;;;36.37;26.77;;;;;;;4.69;65.76;96145.19;5013972;28;20638;-66
2022/12/31 06:41:21;;;;;;;34.67;26.10;;;;;;;4.60;66.08;96153.53;5009972;28;20219;-67
2022/12/31 06:43:47;;;;;;;38.00;27.43;;;;;;;4.49;66.62;96155.88;5013926;28;20190;-66
2022/12/31 06:46:16;;;;;;;34.30;25.83;;;;;;;4.62;66.33;96155.13;5014511;28;20218;-67
2022/12/31 06:48:43;;;;;;;35.37;27.27;;;;;;;4.70;65.89;96159.88;5019367;28;20241;-67
2022/12/31 06:51:14;;;;;;;33.73;26.30;;;;;;;4.71;65.93;96165.97;5012106;28;20234;-67
2022/12/31 06:53:40;;;;;;;30.17;25.23;;;;;;;4.52;66.90;96173.97;5011745;28;20222;-67
2022/12/31 06:56:07;;;;;;;37.87;26.57;;;;;;;4.57;67.16;96178.00;5002929;28;20184;-66
2022/12/31 06:58:33;;;;;;;27.30;24.33;;;;;;;4.82;66.75;96172.22;5012585;28;20187;-67
2022/12/31 07:01:13;;;;;;;29.90;24.30;;;;;;;5.00;65.93;96183.34;5005550;28;20229;-66
2022/12/31 07:03:45;;;;;;;32.83;23.60;;;;;;;5.07;65.45;96182.06;5021422;28;20236;-67
2022/12/31 07:06:16;;;;;;;33.57;26.57;;;;;;;5.06;65.82;96179.56;5019100;28;20306;-68
2022/12/31 07:09:04;;;;;;;30.33;24.83;;;;;;;5.18;65.29;96184.03;5018072;28;20269;-67
2022/12/31 07:11:56;;;;;;;29.30;24.23;;;;;;;5.24;65.47;96186.28;5001393;28;20227;-67
2022/12/31 07:14:45;;;;;;;30.83;25.33;;;;;;;5.35;65.39;96188.28;5011691;28;20218;-66
2022/12/31 07:17:25;;;;;;;35.17;25.67;;;;;;;5.42;65.44;96191.34;5018785;28;20195;-66
2022/12/31 07:20:03;;;;;;;32.23;24.77;;;;;;;5.52;65.16;96192.47;5021201;28;20242;-66
2022/12/31 07:22:29;;;;;;;31.13;23.13;;;;;;;5.57;64.98;96190.44;5009620;28;20288;-66
2022/12/31 07:24:55;;;;;;;27.00;23.23;;;;;;;5.55;65.63;96197.50;5017075;28;20254;-66
2022/12/31 07:27:48;;;;;;;31.10;23.27;;;;;;;5.71;65.39;96206.06;5007695;28;20227;-66
2022/12/31 07:30:18;;;;;;;29.20;23.00;;;;;;;5.73;65.31;96199.00;5016472;28;20566;-66
2022/12/31 07:32:46;;;;;;;28.17;22.90;;;;;;;5.84;65.02;96206.19;5010749;28;20269;-67
2022/12/31 07:35:21;;;;;;;28.43;22.70;;;;;;;5.95;64.43;96198.56;5017866;28;20226;-67
2022/12/31 07:38:06;;;;;;;32.13;22.67;;;;;;;5.92;64.95;96201.31;5021835;28;20191;-66
2022/12/31 07:44:07;;;;;;;24.97;20.93;;;;;;;6.23;64.32;96209.06;5012407;28;20215;-66
2022/12/31 07:46:45;;;;;;;28.33;21.13;;;;;;;6.11;64.32;96208.06;5023483;28;20243;-66
2022/12/31 07:49:12;;;;;;;23.07;19.83;;;;;;;6.10;64.51;96209.84;5033196;28;20226;-66
2022/12/31 07:51:38;;;;;;;25.70;20.10;;;;;;;6.38;64.27;96219.38;5019019;28;20237;-66
2022/12/31 07:54:04;;;;;;;25.87;20.13;;;;;;;6.43;64.25;96218.25;5022269;28;20284;-66
2022/12/31 07:56:30;;;;;;;22.83;19.53;;;;;;;6.53;63.87;96217.59;5013782;28;20211;-66
2022/12/31 07:58:55;;;;;;;25.73;18.23;;;;;;;6.65;63.58;96215.94;5020301;28;20181;-66
2022/12/31 08:01:56;;;;;;;23.93;17.30;;;;;;;6.74;63.60;96225.00;5028742;28;20195;-66
2022/12/31 08:04:30;;;;;;;22.33;18.97;;;;;;;6.81;63.28;96214.03;5018008;28;20218;-66
2022/12/31 08:07:06;;;;;;;23.20;17.97;;;;;;;6.91;63.18;96208.22;5009996;28;20249;-66
2022/12/31 08:09:59;;;;;;;20.57;18.20;;;;;;;7.01;62.94;96212.75;5024452;28;20219;-66
2022/12/31 08:12:29;;;;;;;25.70;19.90;;;;;;;6.96;62.85;96211.38;5015215;28;20227;-66
2022/12/31 08:14:55;;;;;;;26.50;20.13;;;;;;;7.03;62.76;96213.50;5013281;28;20232;-66
2022/12/31 08:17:21;;;;;;;26.47;20.23;;;;;;;7.03;62.77;96217.84;5008134;28;20299;-66
2022/12/31 08:19:47;;;;;;;27.07;21.37;;;;;;;7.11;62.68;96210.38;5014351;28;20214;-66
2022/12/31 08:22:22;;;;;;;28.73;20.47;;;;;;;7.17;62.26;96220.41;5013318;28;20229;-66
2022/12/31 08:25:22;;;;;;;21.53;18.13;;;;;;;7.32;61.99;96221.16;5024184;28;20242;-66
2022/12/31 08:28:19;;;;;;;23.27;16.40;;;;;;;7.42;61.74;96218.78;5008335;28;20260;-66
2022/12/31 08:30:56;;;;;;;21.63;16.67;;;;;;;7.40;61.63;96210.19;5015904;28;20231;-66
2022/12/31 08:33:41;;;;;;;23.37;17.77;;;;;;;7.49;61.69;96215.66;5016514;28;20275;-68
2022/12/31 08:36:25;;;;;;;25.30;18.33;;;;;;;7.56;61.74;96217.84;5008842;28;20241;-67
2022/12/31 08:39:06;;;;;;;18.00;14.70;;;;;;;7.66;61.32;96221.53;5004788;28;20223;-67
2022/12/31 08:41:46;;;;;;;23.13;15.57;;;;;;;7.76;61.28;96224.38;4994414;28;20310;-67
2022/12/31 08:44:42;;;;;;;19.23;16.10;;;;;;;7.84;60.91;96228.13;5027624;28;20243;-68
2022/12/31 08:47:51;;;;;;;18.77;16.50;;;;;;;7.99;60.22;96220.13;5007523;28;20227;-67
2022/12/31 08:50:18;;;;;;;19.80;16.87;;;;;;;7.88;60.81;96219.09;5003583;28;20227;-67
2022/12/31 08:52:44;;;;;;;19.03;16.50;;;;;;;8.00;60.81;96209.56;4997038;28;20198;-66
2022/12/31 08:55:15;;;;;;;20.17;17.03;;;;;;;8.12;60.38;96207.88;5021705;28;20311;-67
2022/12/31 08:58:33;;;;;;;20.97;15.70;;;;;;;8.19;59.41;96198.63;5012331;28;20283;-66
2022/12/31 09:01:00;;;;;;;22.07;16.57;;;;;;;8.17;59.94;96200.53;5035199;28;20250;-67
2022/12/31 09:04:21;;;;;;;19.07;15.63;;;;;;;8.43;59.08;96197.88;5007276;28;20315;-66
2022/12/31 09:06:50;;;;;;;20.87;15.50;;;;;;;8.31;59.54;96192.53;4967274;28;20231;-67
2022/12/31 09:09:48;;;;;;;19.47;16.83;;;;;;;8.38;59.19;96201.63;4958658;28;20262;-66
2022/12/31 09:12:30;;;;;;;21.30;15.33;;;;;;;8.48;58.53;96198.41;4974111;28;20315;-66
2022/12/31 09:15:07;;;;;;;20.10;15.10;;;;;;;8.60;58.39;96206.19;4977701;28;20220;-67
2022/12/31 09:17:51;;;;;;;19.63;15.03;;;;;;;8.37;58.94;96199.13;4964439;28;20233;-67
2022/12/31 09:20:26;;;;;;;18.80;16.03;;;;;;;8.50;58.91;96206.97;4971406;28;20302;-67
2022/12/31 09:22:52;;;;;;;20.57;17.77;;;;;;;8.51;58.60;96199.00;4972806;28;20192;-67
2022/12/31 09:25:20;;;;;;;23.77;19.03;;;;;;;8.65;58.11;96192.75;4968120;28;20314;-67
2022/12/31 09:27:48;;;;;;;28.17;22.37;;;;;;;8.77;57.97;96194.50;4943294;29;20224;-67
2022/12/31 09:30:16;;;;;;;25.83;21.57;;;;;;;8.68;57.79;96191.69;4968912;28;20231;-66
2022/12/31 09:32:44;;;;;;;29.20;23.33;;;;;;;8.66;58.24;96185.72;4940213;29;20235;-67
2022/12/31 09:35:28;;;;;;;28.93;24.47;;;;;;;8.70;58.30;96184.56;4971857;28;20196;-66
2022/12/31 09:38:35;;;;;;;31.23;26.03;;;;;;;8.74;58.12;96176.38;4946579;28;20193;-67
2022/12/31 09:41:34;;;;;;;29.07;24.30;;;;;;;8.78;57.86;96174.34;4937256;28;20242;-66
2022/12/31 09:44:24;;;;;;;29.50;25.23;;;;;;;8.99;57.45;96162.28;4954557;28;20271;-67
2022/12/31 09:50:01;;;;;;;33.23;25.70;;;;;;;9.05;56.66;96150.47;4956720;28;20254;-67
2022/12/31 09:52:55;;;;;;;34.47;26.73;;;;;;;9.09;56.92;96149.31;4952462;28;20256;-67
2022/12/31 09:55:40;;;;;;;26.23;23.00;;;;;;;9.27;56.71;96149.69;4937091;29;20224;-67
2022/12/31 09:58:31;;;;;;;25.33;22.43;;;;;;;9.42;56.36;96139.84;4942265;29;20228;-67
2022/12/31 10:01:07;;;;;;;29.47;21.27;;;;;;;9.61;56.00;96145.34;4978874;28;20253;-67
2022/12/31 10:03:54;;;;;;;23.70;20.17;;;;;;;9.63;55.85;96140.81;4954678;28;20246;-67
2022/12/31 10:06:24;;;;;;;24.37;20.00;;;;;;;9.73;55.57;96133.06;4965863;28;20240;-68
2022/12/31 10:09:13;;;;;;;27.60;22.23;;;;;;;9.87;55.25;96124.13;4956737;28;20262;-66
2022/12/31 10:12:16;;;;;;;26.80;22.77;;;;;;;9.94;54.84;96130.53;4956346;28;20267;-68
2022/12/31 10:14:54;;;;;;;28.97;23.97;;;;;;;9.87;55.13;96126.75;4944033;28;20231;-68
2022/12/31 10:17:59;;;;;;;26.77;23.10;;;;;;;9.97;55.01;96121.59;4954145;28;20231;-68
2022/12/31 10:21:01;;;;;;;27.33;23.37;;;;;;;10.16;54.61;96130.53;4936651;29;20263;-66
2022/12/31 10:23:52;;;;;;;25.83;22.67;;;;;;;10.33;54.22;96126.56;4935471;29;20303;-66
2022/12/31 10:26:30;;;;;;;29.20;22.13;;;;;;;10.32;54.14;96121.47;4932486;29;20243;-67
2022/12/31 10:29:13;;;;;;;24.37;21.57;;;;;;;10.49;53.90;96112.19;4935590;29;20196;-66
2022/12/31 10:31:39;;;;;;;25.70;20.70;;;;;;;10.58;53.63;96107.03;4938690;28;20250;-66
2022/12/31 10:34:11;;;;;;;25.97;20.60;;;;;;;10.64;53.31;96115.38;4970272;28;20314;-66
2022/12/31 10:36:55;;;;;;;24.03;21.33;;;;;;;10.75;52.59;96115.34;4971515;28;20227;-68
2022/12/31 10:39:48;;;;;;;25.43;21.83;;;;;;;10.84;52.72;96111.94;4984021;28;20239;-66
2022/12/31 10:43:00;;;;;;;24.50;20.60;;;;;;;10.93;51.95;96100.69;4962978;28;20228;-66
2022/12/31 10:46:12;;;;;;;26.00;21.83;;;;;;;10.99;51.98;96105.41;4985082;28;20235;-67
2022/12/31 10:48:53;;;;;;;25.30;20.77;;;;;;;11.08;51.54;96100.34;4949232;29;20256;-67
2022/12/31 10:51:55;;;;;;;26.93;21.63;;;;;;;11.24;51.30;96092.84;4926113;29;20360;-66
2022/12/31 10:54:39;;;;;;;24.50;20.23;;;;;;;11.26;51.06;96096.19;4925621;29;20232;-66
2022/12/31 10:57:29;;;;;;;21.83;18.33;;;;;;;11.27;51.06;96087.31;4931808;29;20317;-69
2022/12/31 11:00:01;;;;;;;20.83;18.53;;;;;;;11.51;50.25;96081.75;4934513;29;20221;-67
2022/12/31 11:02:35;;;;;;;19.93;17.80;;;;;;;11.70;49.84;96083.63;4934754;29;20235;-67
2022/12/31 11:05:41;;;;;;;20.83;18.33;;;;;;;11.16;50.63;96096.09;4935019;28;20695;-67
2022/12/31 11:08:54;;;;;;;23.30;20.17;;;;;;;11.03;51.37;96101.56;4934615;29;20197;-67
2022/12/31 11:11:57;;;;;;;22.37;19.67;;;;;;;11.26;50.95;96099.63;4900225;29;20218;-67
2022/12/31 11:14:40;;;;;;;21.23;19.03;;;;;;;11.45;50.47;96091.00;4896631;29;20277;-66
2022/12/31 11:17:24;;;;;;;23.43;19.10;;;;;;;11.51;50.46;96086.19;4910679;29;20273;-66
2022/12/31 11:20:11;;;;;;;20.17;17.80;;;;;;;11.72;49.87;96073.81;4910845;29;20301;-66
2022/12/31 11:22:54;;;;;;;22.17;18.87;;;;;;;11.82;49.78;96073.84;4910976;29;20234;-66
2022/12/31 11:25:29;;;;;;;20.77;18.60;;;;;;;11.95;49.56;96077.13;4930825;28;20288;-66
2022/12/31 11:28:16;;;;;;;21.53;18.67;;;;;;;12.11;49.19;96066.88;4954316;28;20583;-67
2022/12/31 11:30:54;;;;;;;23.02;18.63;;;;;;;12.25;48.53;96070.94;4929904;29;20217;-66
2022/12/31 11:33:27;;;;;;;23.20;18.33;;;;;;;12.27;48.32;96074.28;4930227;29;20278;-67
2022/12/31 11:36:13;;;;;;;23.77;19.20;;;;;;;12.47;47.99;96067.22;4934329;29;20235;-67
2022/12/31 11:38:49;;;;;;;20.90;18.60;;;;;;;12.88;47.11;96070.53;4934052;29;20236;-67
2022/12/31 11:41:33;;;;;;;22.48;18.67;;;;;;;13.58;45.19;96055.28;4931229;29;20239;-67
2022/12/31 11:44:11;;;;;;;24.60;19.30;;;;;;;13.74;44.72;96053.81;4928602;29;20294;-68
2022/12/31 11:46:36;;;;;;;23.50;19.20;;;;;;;13.58;45.20;96055.28;4931402;28;20197;-68
2022/12/31 11:49:20;;;;;;;24.63;19.85;;;;;;;13.45;45.27;96054.78;5027089;28;20331;-68
2022/12/31 11:52:02;;;;;;;22.70;20.17;;;;;;;13.43;45.45;96051.44;5014680;28;20234;-68
2022/12/31 11:54:39;;;;;;;23.15;20.73;;;;;;;13.19;46.03;96042.16;5008968;28;20378;-67
2022/12/31 11:57:41;;;;;;;29.00;20.10;;;;;;;13.51;45.46;96040.16;5013262;28;20221;-67
2022/12/31 12:00:17;;;;;;;21.73;19.00;;;;;;;13.57;45.37;96047.50;5019598;28;20226;-67
2022/12/31 12:02:47;;;;;;;25.33;19.70;;;;;;;13.63;44.89;96050.41;5012840;28;20230;-68
2022/12/31 12:05:17;;;;;;;21.50;19.13;;;;;;;13.70;44.81;96053.28;5013049;28;20330;-67
2022/12/31 12:07:42;;;;;;;20.85;18.48;;;;;;;13.83;44.59;96052.94;5028935;28;20558;-68
2022/12/31 12:10:22;;;;;;;21.52;19.30;;;;;;;13.95;44.13;96054.41;5016062;28;20301;-67
2022/12/31 12:12:47;;;;;;;22.52;18.95;;;;;;;14.01;44.28;96059.13;5014606;28;20219;-68